createdAt,value
2023-01-03T00:02:08.937Z,1.73
2023-01-03T00:04:36.281Z,1.73
2023-01-03T00:07:03.609Z,1.43
2023-01-03T00:09:30.884Z,2.43
2023-01-03T00:12:16.911Z,1.77
2023-01-03T00:14:44.799Z,1.53
2023-01-03T00:17:12.814Z,1.83
2023-01-03T00:19:44.432Z,1.50
2023-01-03T00:22:12.984Z,1.60
2023-01-03T00:24:40.521Z,1.60
2023-01-03T00:27:08.807Z,1.53
2023-01-03T00:29:36.206Z,1.53
2023-01-03T00:32:04.232Z,2.53
2023-01-03T00:34:31.602Z,1.33
2023-01-03T00:36:59.939Z,1.97
2023-01-03T00:39:26.894Z,1.40
2023-01-03T00:41:54.441Z,1.87
2023-01-03T00:44:21.672Z,1.60
2023-01-03T00:46:48.631Z,1.33
2023-01-03T00:49:15.595Z,1.60
2023-01-03T00:51:43.597Z,1.63
2023-01-03T00:54:13.313Z,1.60
2023-01-03T00:56:45.592Z,2.27
2023-01-03T00:59:13.680Z,1.50
2023-01-03T01:01:47.457Z,3.27
2023-01-03T01:04:19.272Z,1.20
2023-01-03T01:06:50.252Z,1.30
2023-01-03T01:09:23.297Z,1.57
2023-01-03T01:11:51.006Z,2.30
2023-01-03T01:14:22.070Z,1.37
2023-01-03T01:16:49.405Z,1.40
2023-01-03T01:19:17.314Z,1.53
2023-01-03T01:21:44.900Z,1.60
2023-01-03T01:24:17.786Z,1.50
2023-01-03T01:26:45.964Z,1.57
2023-01-03T01:29:14.139Z,2.03
2023-01-03T01:31:41.703Z,1.30
2023-01-03T01:34:09.047Z,1.30
2023-01-03T01:36:37.723Z,1.40
2023-01-03T01:39:11.287Z,1.30
2023-01-03T01:41:57.385Z,1.10
2023-01-03T01:44:48.678Z,1.43
2023-01-03T01:47:27.619Z,1.43
2023-01-03T01:50:00.330Z,1.50
2023-01-03T01:52:30.079Z,1.43
2023-01-03T01:54:58.401Z,1.57
2023-01-03T01:57:26.154Z,1.83
2023-01-03T01:59:53.096Z,1.57
2023-01-03T02:02:21.780Z,1.87
2023-01-03T02:04:54.032Z,1.80
2023-01-03T02:07:22.913Z,1.70
2023-01-03T02:09:52.846Z,1.90
2023-01-03T02:12:53.999Z,2.33
2023-01-03T02:15:48.636Z,1.67
2023-01-03T02:18:39.657Z,1.63
2023-01-03T02:21:32.455Z,1.60
2023-01-03T02:24:33.142Z,1.60
2023-01-03T02:27:23.910Z,1.47
2023-01-03T02:30:24.197Z,1.60
2023-01-03T02:33:17.923Z,1.40
2023-01-03T02:35:54.487Z,1.70
2023-01-03T02:38:53.335Z,1.53
2023-01-03T02:41:41.439Z,1.93
2023-01-03T02:44:16.692Z,1.60
2023-01-03T02:47:04.617Z,1.97
2023-01-03T02:49:46.979Z,1.53
2023-01-03T02:52:36.071Z,1.60
2023-01-03T02:55:16.157Z,1.90
2023-01-03T02:57:56.588Z,1.77
2023-01-03T03:00:29.000Z,1.70
2023-01-03T03:03:04.823Z,1.60
2023-01-03T03:05:41.831Z,1.57
2023-01-03T03:08:08.705Z,1.40
2023-01-03T03:10:55.783Z,2.60
2023-01-03T03:13:30.890Z,1.70
2023-01-03T03:16:06.763Z,1.40
2023-01-03T03:19:00.460Z,2.17
2023-01-03T03:22:00.829Z,2.57
2023-01-03T03:24:49.087Z,2.17
2023-01-03T03:27:40.063Z,1.70
2023-01-03T03:30:12.128Z,1.83
2023-01-03T03:32:41.544Z,1.87
2023-01-03T03:35:12.394Z,1.93
2023-01-03T03:37:40.878Z,1.47
2023-01-03T03:40:27.557Z,1.77
2023-01-03T03:43:55.150Z,1.33
2023-01-03T03:46:30.927Z,1.87
2023-01-03T03:49:22.436Z,1.90
2023-01-03T03:51:51.034Z,2.10
2023-01-03T03:54:20.962Z,1.63
2023-01-03T03:56:54.649Z,1.90
2023-01-03T03:59:23.838Z,1.60
2023-01-03T04:01:52.750Z,1.60
2023-01-03T04:04:27.211Z,1.87
2023-01-03T04:06:54.205Z,2.10
2023-01-03T04:09:21.301Z,1.73
2023-01-03T04:11:48.225Z,1.73
2023-01-03T04:14:15.116Z,1.67
2023-01-03T04:16:42.191Z,1.90
2023-01-03T04:19:09.123Z,2.00
2023-01-03T04:21:36.823Z,3.57
2023-01-03T04:24:05.062Z,1.80
2023-01-03T04:26:32.799Z,1.40
2023-01-03T04:28:59.604Z,1.60
2023-01-03T04:31:26.569Z,2.03
2023-01-03T04:33:54.076Z,2.37
2023-01-03T04:36:21.292Z,2.20
2023-01-03T04:38:48.191Z,1.30
2023-01-03T04:41:15.060Z,1.70
2023-01-03T04:44:02.773Z,1.83
2023-01-03T04:46:30.809Z,1.40
2023-01-03T04:48:57.696Z,1.60
2023-01-03T04:51:24.909Z,1.77
2023-01-03T04:53:51.706Z,1.50
2023-01-03T04:56:22.980Z,1.70
2023-01-03T04:58:49.824Z,1.60
2023-01-03T05:01:16.804Z,1.60
2023-01-03T05:03:43.824Z,1.80
2023-01-03T05:06:12.202Z,1.67
2023-01-03T05:08:39.125Z,1.30
2023-01-03T05:11:07.071Z,1.50
2023-01-03T05:13:34.152Z,2.30
2023-01-03T05:16:09.564Z,1.70
2023-01-03T05:18:36.719Z,1.77
2023-01-03T05:21:36.118Z,1.83
2023-01-03T05:24:22.292Z,1.90
2023-01-03T05:26:49.976Z,2.47
2023-01-03T05:29:20.210Z,1.87
2023-01-03T05:31:47.262Z,1.73
2023-01-03T05:34:14.316Z,2.17
2023-01-03T05:36:41.542Z,3.57
2023-01-03T05:39:08.423Z,1.63
2023-01-03T05:42:00.369Z,2.30
2023-01-03T05:44:29.256Z,1.67
2023-01-03T05:46:56.945Z,1.97
2023-01-03T05:49:23.999Z,1.80
2023-01-03T05:51:50.955Z,1.80
2023-01-03T05:54:19.356Z,1.57
2023-01-03T05:56:46.694Z,2.33
2023-01-03T05:59:13.626Z,1.97
2023-01-03T06:01:40.610Z,1.70
2023-01-03T06:04:08.032Z,1.83
2023-01-03T06:06:35.112Z,1.70
2023-01-03T06:09:02.050Z,1.70
2023-01-03T06:11:28.897Z,1.90
2023-01-03T06:13:55.735Z,2.17
2023-01-03T06:16:42.173Z,5.50
2023-01-03T06:19:09.924Z,3.47
2023-01-03T06:21:37.619Z,2.07
2023-01-03T06:24:04.966Z,1.63
2023-01-03T06:26:31.875Z,1.80
2023-01-03T06:28:59.636Z,1.70
2023-01-03T06:31:26.692Z,2.37
2023-01-03T06:33:53.981Z,2.10
2023-01-03T06:36:23.131Z,2.07
2023-01-03T06:38:49.952Z,2.00
2023-01-03T06:41:17.247Z,2.00
2023-01-03T06:43:44.237Z,1.90
2023-01-03T06:46:31.357Z,2.73
2023-01-03T06:49:17.824Z,1.97
2023-01-03T06:52:05.463Z,2.07
2023-01-03T06:54:34.680Z,2.47
2023-01-03T06:57:03.707Z,2.27
2023-01-03T06:59:30.555Z,2.20
2023-01-03T07:01:58.023Z,3.57
2023-01-03T07:04:25.909Z,2.73
2023-01-03T07:06:53.393Z,2.40
2023-01-03T07:09:20.482Z,3.03
2023-01-03T07:11:47.305Z,2.93
2023-01-03T07:14:14.203Z,3.67
2023-01-03T07:16:43.354Z,3.67
2023-01-03T07:19:13.957Z,3.33
2023-01-03T07:21:41.350Z,3.50
2023-01-03T07:24:10.767Z,2.90
2023-01-03T07:26:37.676Z,2.63
2023-01-03T07:29:08.120Z,2.90
2023-01-03T07:31:38.520Z,3.33
2023-01-03T07:34:05.588Z,4.03
2023-01-03T07:36:32.488Z,3.47
2023-01-03T07:38:59.923Z,3.20
2023-01-03T07:41:47.198Z,4.60
2023-01-03T07:44:14.421Z,3.10
2023-01-03T07:46:41.734Z,3.10
2023-01-03T07:49:11.946Z,3.47
2023-01-03T07:51:39.661Z,3.80
2023-01-03T07:54:07.533Z,4.30
2023-01-03T07:56:35.408Z,3.00
2023-01-03T07:59:02.781Z,3.97
2023-01-03T08:01:30.617Z,3.60
2023-01-03T08:03:57.830Z,2.67
2023-01-03T08:06:25.231Z,3.17
2023-01-03T08:09:11.657Z,3.10
2023-01-03T08:11:57.615Z,3.90
2023-01-03T08:14:26.568Z,3.60
2023-01-03T08:16:54.555Z,4.10
2023-01-03T08:19:21.744Z,4.20
2023-01-03T08:21:48.987Z,4.03
2023-01-03T08:24:16.316Z,5.53
2023-01-03T08:26:43.557Z,2.93
2023-01-03T08:29:10.752Z,3.30
2023-01-03T08:31:40.113Z,3.47
2023-01-03T08:34:16.030Z,3.17
2023-01-03T08:36:52.699Z,3.27
2023-01-03T08:39:21.986Z,3.70
2023-01-03T08:41:53.217Z,3.13
2023-01-03T08:44:20.561Z,2.80
2023-01-03T08:46:50.486Z,3.20
2023-01-03T08:49:18.069Z,4.27
2023-01-03T08:51:45.273Z,5.27
2023-01-03T08:54:12.561Z,3.60
2023-01-03T08:56:40.170Z,3.40
2023-01-03T08:59:08.355Z,4.17
2023-01-03T09:01:35.882Z,3.30
2023-01-03T09:04:05.066Z,3.13
2023-01-03T09:06:32.619Z,4.03
2023-01-03T09:08:59.872Z,4.10
2023-01-03T09:11:27.162Z,3.03
2023-01-03T09:13:55.927Z,2.73
2023-01-03T09:16:23.250Z,4.83
2023-01-03T09:18:50.568Z,2.60
2023-01-03T09:21:17.759Z,2.80
2023-01-03T09:23:45.058Z,2.47
2023-01-03T09:26:12.336Z,3.10
2023-01-03T09:28:39.627Z,4.10
2023-01-03T09:31:06.943Z,3.73
2023-01-03T09:33:34.336Z,2.93
2023-01-03T09:36:01.650Z,3.40
2023-01-03T09:38:28.974Z,2.70
2023-01-03T09:41:03.191Z,2.97
2023-01-03T09:43:34.447Z,2.97
2023-01-03T09:46:02.124Z,3.20
2023-01-03T09:48:41.023Z,2.50
2023-01-03T09:51:30.703Z,3.23
2023-01-03T09:54:34.429Z,2.67
2023-01-03T09:57:26.290Z,4.23
2023-01-03T10:00:14.351Z,3.03
2023-01-03T10:03:00.225Z,4.17
2023-01-03T10:05:30.265Z,4.33
2023-01-03T10:07:57.773Z,3.23
2023-01-03T10:10:43.919Z,3.00
2023-01-03T10:13:30.974Z,3.27
2023-01-03T10:16:06.455Z,3.10
2023-01-03T10:18:36.512Z,2.77
2023-01-03T10:21:08.289Z,2.93
2023-01-03T10:23:36.149Z,4.07
2023-01-03T10:26:09.250Z,2.10
2023-01-03T10:28:37.785Z,3.20
2023-01-03T10:31:17.369Z,2.97
2023-01-03T10:33:45.774Z,3.17
2023-01-03T10:36:13.909Z,2.20
2023-01-03T10:38:47.843Z,2.57
2023-01-03T10:41:24.380Z,3.67
2023-01-03T10:43:59.225Z,3.00
2023-01-03T10:46:28.292Z,2.97
2023-01-03T10:51:50.204Z,2.40
2023-01-03T10:54:20.936Z,3.27
2023-01-03T10:56:49.019Z,3.00
2023-01-03T10:59:16.302Z,3.00
2023-01-03T11:02:02.822Z,2.40
2023-01-03T11:04:31.495Z,2.80
2023-01-03T11:07:13.794Z,2.77
2023-01-03T11:09:51.253Z,4.53
2023-01-03T11:12:19.124Z,2.67
2023-01-03T11:14:55.176Z,2.37
2023-01-03T11:17:23.340Z,2.30
2023-01-03T11:19:51.176Z,2.43
2023-01-03T11:22:40.805Z,2.60
2023-01-03T11:25:26.900Z,3.63
2023-01-03T11:27:54.144Z,4.77
2023-01-03T11:30:24.419Z,4.13
2023-01-03T11:32:51.692Z,2.27
2023-01-03T11:35:35.136Z,2.30
2023-01-03T11:38:05.545Z,2.63
2023-01-03T11:40:38.971Z,3.60
2023-01-03T11:43:12.816Z,1.80
2023-01-03T11:45:58.765Z,1.80
2023-01-03T11:48:33.183Z,2.30
2023-01-03T11:51:15.280Z,2.20
2023-01-03T11:53:56.801Z,3.67
2023-01-03T11:56:28.652Z,2.80
2023-01-03T11:59:01.673Z,2.90
2023-01-03T12:01:39.355Z,2.03
2023-01-03T12:04:27.400Z,1.80
2023-01-03T12:07:45.966Z,3.30
2023-01-03T12:09:54.743Z,2.10
2023-01-03T12:12:40.796Z,3.37
2023-01-03T12:15:18.234Z,2.33
2023-01-03T12:18:04.192Z,2.57
2023-01-03T12:20:37.139Z,1.70
2023-01-03T12:23:15.733Z,1.80
2023-01-03T12:25:45.362Z,1.93
2023-01-03T12:28:15.793Z,1.77
2023-01-03T12:30:45.620Z,1.77
2023-01-03T12:33:25.771Z,1.57
2023-01-03T12:36:25.809Z,1.90
2023-01-03T12:39:13.348Z,1.97
2023-01-03T12:41:47.302Z,1.57
2023-01-03T12:44:23.692Z,1.43
2023-01-03T12:46:53.130Z,3.07
2023-01-03T12:49:24.788Z,1.63
2023-01-03T12:51:52.139Z,2.47
2023-01-03T12:54:38.248Z,1.40
2023-01-03T12:57:05.464Z,1.80
2023-01-03T12:59:58.680Z,2.33
2023-01-03T13:02:47.558Z,1.43
2023-01-03T13:05:18.114Z,1.80
2023-01-03T13:07:52.031Z,1.43
2023-01-03T13:10:20.999Z,1.90
2023-01-03T13:12:53.164Z,1.33
2023-01-03T13:15:37.205Z,1.60
2023-01-03T13:18:20.024Z,1.53
2023-01-03T13:20:49.997Z,1.90
2023-01-03T13:23:32.904Z,1.70
2023-01-03T13:26:06.136Z,1.70
2023-01-03T13:28:36.861Z,2.63
2023-01-03T13:31:19.483Z,1.57
2023-01-03T13:33:53.843Z,1.30
2023-01-03T13:36:22.224Z,2.00
2023-01-03T13:38:49.566Z,1.87
2023-01-03T13:41:35.463Z,1.67
2023-01-03T13:44:10.294Z,2.07
2023-01-03T13:46:40.088Z,3.30
2023-01-03T13:49:08.400Z,2.83
2023-01-03T13:51:47.397Z,1.83
2023-01-03T13:54:14.622Z,1.70
2023-01-03T13:56:45.075Z,3.07
2023-01-03T13:59:15.486Z,1.40
2023-01-03T14:02:01.303Z,1.53
2023-01-03T14:04:31.613Z,2.10
2023-01-03T14:07:20.462Z,2.00
2023-01-03T14:09:50.558Z,1.40
2023-01-03T14:12:36.451Z,1.70
2023-01-03T14:15:23.050Z,1.80
2023-01-03T14:18:03.692Z,3.73
2023-01-03T14:20:32.885Z,2.50
2023-01-03T14:23:23.885Z,2.77
2023-01-03T14:25:53.286Z,1.70
2023-01-03T14:28:20.578Z,1.53
2023-01-03T14:30:52.175Z,1.50
2023-01-03T14:33:21.656Z,1.40
2023-01-03T14:35:49.101Z,2.20
2023-01-03T14:38:27.295Z,2.23
2023-01-03T14:40:55.940Z,1.33
2023-01-03T14:43:23.670Z,1.53
2023-01-03T14:45:54.997Z,1.63
2023-01-03T14:48:23.479Z,2.30
2023-01-03T14:50:51.024Z,1.70
2023-01-03T14:53:18.421Z,2.87
2023-01-03T14:55:56.492Z,1.80
2023-01-03T14:58:28.621Z,1.80
2023-01-03T15:00:56.921Z,1.57
2023-01-03T15:03:25.555Z,2.27
2023-01-03T15:05:58.713Z,2.23
2023-01-03T15:08:28.093Z,3.57
2023-01-03T15:10:59.531Z,3.63
2023-01-03T15:13:36.069Z,3.07
2023-01-03T15:16:05.930Z,5.07
2023-01-03T15:18:34.708Z,3.47
2023-01-03T15:21:03.477Z,2.97
2023-01-03T15:23:38.488Z,2.80
2023-01-03T15:26:06.729Z,2.07
2023-01-03T15:28:39.291Z,2.47
2023-01-03T15:31:14.407Z,3.07
2023-01-03T15:33:42.092Z,3.43
2023-01-03T15:36:18.738Z,2.70
2023-01-03T15:38:47.354Z,1.83
2023-01-03T15:41:16.986Z,3.23
2023-01-03T15:43:44.402Z,3.43
2023-01-03T15:46:11.662Z,2.40
2023-01-03T15:48:39.277Z,2.40
2023-01-03T15:51:07.292Z,2.80
2023-01-03T15:53:44.396Z,2.10
2023-01-03T15:56:19.923Z,1.97
2023-01-03T15:58:51.481Z,2.90
2023-01-03T16:01:20.198Z,2.53
2023-01-03T16:03:48.715Z,3.43
2023-01-03T16:06:16.448Z,3.00
2023-01-03T16:08:44.127Z,2.70
2023-01-03T16:11:19.445Z,3.77
2023-01-03T16:13:50.168Z,3.43
2023-01-03T16:16:20.549Z,3.57
2023-01-03T16:18:51.072Z,2.33
2023-01-03T16:21:18.551Z,3.10
2023-01-03T16:23:45.939Z,3.70
2023-01-03T16:26:13.501Z,4.53
2023-01-03T16:28:40.751Z,3.13
2023-01-03T16:31:16.074Z,3.83
2023-01-03T16:33:43.851Z,3.77
2023-01-03T16:36:23.212Z,4.40
2023-01-03T16:38:50.882Z,4.70
2023-01-03T16:41:18.117Z,3.33
2023-01-03T16:43:45.492Z,4.60
2023-01-03T16:46:13.219Z,4.23
2023-01-03T16:48:43.177Z,3.10
2023-01-03T16:51:18.196Z,7.17
2023-01-03T16:53:47.314Z,4.40
2023-01-03T16:56:14.658Z,4.10
2023-01-03T16:58:41.884Z,5.73
2023-01-03T17:01:09.335Z,4.67
2023-01-03T17:03:41.519Z,6.03
2023-01-03T17:06:22.686Z,4.80
2023-01-03T17:08:50.105Z,7.10
2023-01-03T17:11:17.617Z,5.60
2023-01-03T17:13:46.031Z,6.83
2023-01-03T17:16:15.270Z,4.80
2023-01-03T17:18:43.416Z,7.47
2023-01-03T17:21:19.966Z,6.97
2023-01-03T17:23:47.954Z,7.83
2023-01-03T17:26:17.508Z,7.37
2023-01-03T17:28:45.611Z,11.57
2023-01-03T17:31:15.865Z,11.30
2023-01-03T17:33:43.307Z,6.20
2023-01-03T17:36:14.847Z,6.17
2023-01-03T17:38:43.100Z,4.40
2023-01-03T17:41:17.296Z,5.40
2023-01-03T17:43:44.560Z,4.17
2023-01-03T17:46:36.237Z,7.17
2023-01-03T17:49:22.892Z,5.07
2023-01-03T17:51:51.289Z,6.07
2023-01-03T17:54:19.858Z,5.20
2023-01-03T17:56:47.385Z,4.73
2023-01-03T17:59:14.637Z,5.03
2023-01-03T18:01:42.546Z,6.70
2023-01-03T18:04:11.125Z,5.80
2023-01-03T18:06:39.419Z,6.80
2023-01-03T18:09:08.525Z,6.10
2023-01-03T18:11:35.941Z,6.17
2023-01-03T18:14:03.166Z,6.17
2023-01-03T18:16:30.547Z,6.27
2023-01-03T18:18:58.274Z,6.20
2023-01-03T18:21:27.766Z,5.40
2023-01-03T18:24:01.124Z,6.33
2023-01-03T18:26:30.689Z,6.67
2023-01-03T18:28:57.931Z,9.07
2023-01-03T18:31:25.407Z,6.70
2023-01-03T18:33:52.799Z,6.80
2023-01-03T18:36:24.307Z,7.40
2023-01-03T18:38:52.086Z,6.77
2023-01-03T18:41:22.605Z,6.07
2023-01-03T18:43:50.008Z,7.03
2023-01-03T18:46:17.517Z,7.13
2023-01-03T18:48:44.812Z,6.90
2023-01-03T18:51:16.357Z,6.77
2023-01-03T18:53:44.651Z,8.10
2023-01-03T18:56:30.184Z,8.40
2023-01-03T18:59:02.165Z,6.83
2023-01-03T19:01:30.253Z,8.60
2023-01-03T19:03:57.898Z,7.40
2023-01-03T19:06:31.480Z,8.73
2023-01-03T19:08:59.889Z,6.67
2023-01-03T19:11:31.875Z,6.00
2023-01-03T19:14:02.408Z,5.70
2023-01-03T19:16:31.368Z,6.70
2023-01-03T19:18:59.378Z,31.93
2023-01-03T19:21:29.974Z,9.67
2023-01-03T19:24:00.242Z,8.00
2023-01-03T19:26:33.518Z,5.70
2023-01-03T19:29:02.466Z,5.90
2023-01-03T19:31:33.369Z,6.40
2023-01-03T19:34:23.741Z,5.90
2023-01-03T19:36:51.411Z,6.83
2023-01-03T19:39:24.833Z,6.50
2023-01-03T19:42:14.456Z,7.10
2023-01-03T19:44:42.001Z,7.93
2023-01-03T19:47:12.861Z,7.63
2023-01-03T19:49:40.279Z,9.83
2023-01-03T19:52:07.771Z,8.57
2023-01-03T19:54:35.160Z,8.43
2023-01-03T19:57:02.553Z,10.00
2023-01-03T19:59:37.633Z,7.97
2023-01-03T20:02:25.083Z,8.50
2023-01-03T20:04:57.749Z,7.23
2023-01-03T20:07:25.189Z,7.63
2023-01-03T20:09:52.573Z,7.63
2023-01-03T20:12:23.672Z,8.80
2023-01-03T20:14:52.279Z,7.83
2023-01-03T20:17:23.857Z,7.83
2023-01-03T20:19:51.645Z,5.63
2023-01-03T20:23:02.002Z,6.40
2023-01-03T20:25:13.822Z,7.73
2023-01-03T20:27:44.813Z,5.90
2023-01-03T20:30:22.228Z,6.50
2023-01-03T20:32:49.572Z,5.23
2023-01-03T20:38:05.375Z,5.57
2023-01-03T20:40:32.640Z,4.77
2023-01-03T20:43:02.392Z,5.23
2023-01-03T20:45:29.806Z,6.03
2023-01-03T20:47:57.345Z,5.57
2023-01-03T20:50:26.559Z,5.70
2023-01-03T20:52:54.458Z,4.90
2023-01-03T20:55:23.380Z,4.57
2023-01-03T20:57:51.259Z,4.83
2023-01-03T21:00:18.872Z,5.23
2023-01-03T21:02:46.447Z,4.80
2023-01-03T21:05:13.948Z,4.50
2023-01-03T21:08:00.038Z,6.23
2023-01-03T21:10:28.673Z,5.63
2023-01-03T21:12:56.038Z,4.53
2023-01-03T21:15:23.508Z,4.33
2023-01-03T21:17:51.424Z,3.97
2023-01-03T21:20:20.578Z,4.70
2023-01-03T21:22:47.904Z,9.50
2023-01-03T21:25:25.403Z,4.33
2023-01-03T21:27:53.181Z,4.77
2023-01-03T21:30:21.350Z,4.13
2023-01-03T21:32:48.706Z,4.47
2023-01-03T21:35:18.083Z,6.47
2023-01-03T21:37:45.534Z,5.73
2023-01-03T21:40:18.117Z,4.70
2023-01-03T21:43:04.907Z,3.97
2023-01-03T21:45:42.985Z,4.37
2023-01-03T21:48:11.690Z,4.40
2023-01-03T21:50:39.978Z,3.97
2023-01-03T21:53:07.427Z,5.37
2023-01-03T21:55:34.889Z,4.57
2023-01-03T21:58:02.139Z,3.90
2023-01-03T22:00:29.436Z,5.50
2023-01-03T22:03:15.482Z,5.57
2023-01-03T22:05:42.851Z,4.93
2023-01-03T22:08:10.703Z,5.63
2023-01-03T22:10:38.130Z,4.80
2023-01-03T22:13:06.485Z,4.77
2023-01-03T22:15:36.329Z,6.57
2023-01-03T22:18:03.659Z,4.43
2023-01-03T22:20:36.380Z,5.63
2023-01-03T22:23:06.646Z,4.57
2023-01-03T22:25:33.928Z,4.63
2023-01-03T22:28:01.555Z,3.80
2023-01-03T22:30:28.830Z,4.10
2023-01-03T22:32:58.957Z,4.03
2023-01-03T22:35:26.391Z,4.30
2023-01-03T22:37:55.716Z,3.90
2023-01-03T22:40:23.071Z,3.83
2023-01-03T22:42:50.402Z,3.80
2023-01-03T22:45:17.773Z,3.80
2023-01-03T22:47:45.129Z,3.47
2023-01-03T22:50:12.585Z,4.87
2023-01-03T22:52:40.165Z,3.50
2023-01-03T22:55:08.281Z,4.23
2023-01-03T22:57:35.603Z,4.77
2023-01-03T23:00:03.037Z,5.53
2023-01-03T23:02:39.275Z,4.40
2023-01-03T23:05:09.339Z,4.07
2023-01-03T23:07:36.569Z,4.23
2023-01-03T23:10:03.790Z,3.87
2023-01-03T23:12:58.913Z,4.83
2023-01-03T23:15:27.131Z,3.40
2023-01-03T23:17:57.360Z,3.37
2023-01-03T23:20:27.638Z,4.30
2023-01-03T23:22:59.684Z,3.83
2023-01-03T23:25:27.327Z,4.67
2023-01-03T23:27:54.642Z,3.37
2023-01-03T23:30:23.150Z,5.20
2023-01-03T23:32:50.627Z,3.50
2023-01-03T23:35:18.561Z,3.30
2023-01-03T23:37:47.636Z,4.60
2023-01-03T23:40:14.970Z,4.83
2023-01-03T23:42:42.491Z,4.67
2023-01-03T23:45:09.920Z,3.37
2023-01-03T23:47:37.349Z,3.93
2023-01-03T23:50:04.914Z,3.20
2023-01-03T23:52:33.483Z,3.30
2023-01-03T23:55:06.829Z,4.30
2023-01-03T23:57:37.595Z,3.90
